sensor_id;sensor_type;location;lat;lon;timestamp;pressure;altitude;pressure_sealevel;temperature;humidity
49973;BME280;65693;49.798;10.968;2023-01-15T00:01:04;96732.66;;;8.79;100.00
49973;BME280;65693;49.798;10.968;2023-01-15T00:03:32;96740.59;;;8.79;100.00
49973;BME280;65693;49.798;10.968;2023-01-15T00:06:01;96736.38;;;8.78;100.00
49973;BME280;65693;49.798;10.968;2023-01-15T00:08:27;96730.00;;;8.79;100.00
49973;BME280;65693;49.798;10.968;2023-01-15T00:10:53;96726.56;;;8.78;100.00
49973;BME280;65693;49.798;10.968;2023-01-15T00:13:21;96726.56;;;8.78;100.00
49973;BME280;65693;49.798;10.968;2023-01-15T00:15:47;96728.13;;;8.80;100.00
49973;BME280;65693;49.798;10.968;2023-01-15T00:18:13;96734.25;;;8.80;100.00
49973;BME280;65693;49.798;10.968;2023-01-15T00:20:41;96726.78;;;8.82;100.00
49973;BME280;65693;49.798;10.968;2023-01-15T00:23:08;96721.75;;;8.81;100.00
49973;BME280;65693;49.798;10.968;2023-01-15T00:25:55;96706.66;;;8.81;100.00
49973;BME280;65693;49.798;10.968;2023-01-15T00:28:39;96706.66;;;8.81;100.00
49973;BME280;65693;49.798;10.968;2023-01-15T00:31:05;96706.16;;;8.79;100.00
49973;BME280;65693;49.798;10.968;2023-01-15T00:33:32;96709.31;;;8.81;100.00
49973;BME280;65693;49.798;10.968;2023-01-15T00:35:59;96702.94;;;8.82;100.00
49973;BME280;65693;49.798;10.968;2023-01-15T00:38:26;96697.34;;;8.84;100.00
49973;BME280;65693;49.798;10.968;2023-01-15T00:40:52;96694.19;;;8.82;100.00
49973;BME280;65693;49.798;10.968;2023-01-15T00:43:19;96697.63;;;8.82;100.00
49973;BME280;65693;49.798;10.968;2023-01-15T00:45:45;96685.72;;;8.80;100.00
49973;BME280;65693;49.798;10.968;2023-01-15T00:48:11;96686.53;;;8.80;100.00
49973;BME280;65693;49.798;10.968;2023-01-15T00:50:38;96692.59;;;8.81;100.00
49973;BME280;65693;49.798;10.968;2023-01-15T00:53:06;96692.59;;;8.81;100.00
49973;BME280;65693;49.798;10.968;2023-01-15T00:55:32;96688.88;;;8.82;100.00
49973;BME280;65693;49.798;10.968;2023-01-15T00:57:58;96694.19;;;8.82;100.00
49973;BME280;65693;49.798;10.968;2023-01-15T01:00:25;96691.25;;;8.83;100.00
49973;BME280;65693;49.798;10.968;2023-01-15T01:02:51;96692.84;;;8.84;100.00
49973;BME280;65693;49.798;10.968;2023-01-15T01:05:18;96693.13;;;8.83;100.00
49973;BME280;65693;49.798;10.968;2023-01-15T01:07:44;96680.94;;;8.82;100.00
49973;BME280;65693;49.798;10.968;2023-01-15T01:10:12;96680.94;;;8.82;100.00
49973;BME280;65693;49.798;10.968;2023-01-15T01:12:38;96679.06;;;8.82;100.00
49973;BME280;65693;49.798;10.968;2023-01-15T01:15:06;96684.09;;;8.84;100.00
49973;BME280;65693;49.798;10.968;2023-01-15T01:17:35;96682.25;;;8.84;100.00
49973;BME280;65693;49.798;10.968;2023-01-15T01:20:03;96675.88;;;8.85;100.00
49973;BME280;65693;49.798;10.968;2023-01-15T01:22:29;96673.75;;;8.82;100.00
49973;BME280;65693;49.798;10.968;2023-01-15T01:24:57;96668.47;;;8.82;100.00
49973;BME280;65693;49.798;10.968;2023-01-15T01:27:25;96667.09;;;8.85;100.00
49973;BME280;65693;49.798;10.968;2023-01-15T01:29:52;96666.34;;;8.84;100.00
49973;BME280;65693;49.798;10.968;2023-01-15T01:32:18;96662.88;;;8.84;100.00
49973;BME280;65693;49.798;10.968;2023-01-15T01:34:44;96653.66;;;8.81;100.00
49973;BME280;65693;49.798;10.968;2023-01-15T01:37:11;96659.72;;;8.82;100.00
49973;BME280;65693;49.798;10.968;2023-01-15T01:39:37;96646.97;;;8.84;100.00
49973;BME280;65693;49.798;10.968;2023-01-15T01:42:10;96647.53;;;8.81;100.00
49973;BME280;65693;49.798;10.968;2023-01-15T01:45:08;96628.97;;;8.81;100.00
49973;BME280;65693;49.798;10.968;2023-01-15T01:47:37;96632.94;;;8.83;100.00
49973;BME280;65693;49.798;10.968;2023-01-15T01:50:07;96626.84;;;8.83;100.00
49973;BME280;65693;49.798;10.968;2023-01-15T01:52:39;96617.59;;;8.80;100.00
49973;BME280;65693;49.798;10.968;2023-01-15T01:55:08;96620.25;;;8.80;100.00
49973;BME280;65693;49.798;10.968;2023-01-15T01:57:36;96618.38;;;8.81;100.00
49973;BME280;65693;49.798;10.968;2023-01-15T02:00:04;96620.75;;;8.82;100.00
49973;BME280;65693;49.798;10.968;2023-01-15T02:02:32;96614.66;;;8.82;100.00
49973;BME280;65693;49.798;10.968;2023-01-15T02:05:01;96613.88;;;8.81;100.00
49973;BME280;65693;49.798;10.968;2023-01-15T02:07:28;96598.75;;;8.82;100.00
49973;BME280;65693;49.798;10.968;2023-01-15T02:09:57;96601.13;;;8.83;100.00
49973;BME280;65693;49.798;10.968;2023-01-15T02:12:27;96593.94;;;8.84;100.00
49973;BME280;65693;49.798;10.968;2023-01-15T02:15:03;96586.28;;;8.82;100.00
49973;BME280;65693;49.798;10.968;2023-01-15T02:17:39;96590.53;;;8.83;100.00
49973;BME280;65693;49.798;10.968;2023-01-15T02:20:20;96590.03;;;8.81;100.00
49973;BME280;65693;49.798;10.968;2023-01-15T02:22:58;96581.28;;;8.81;100.00
49973;BME280;65693;49.798;10.968;2023-01-15T02:25:32;96575.69;;;8.82;100.00
49973;BME280;65693;49.798;10.968;2023-01-15T02:28:09;96571.19;;;8.83;100.00
49973;BME280;65693;49.798;10.968;2023-01-15T02:30:43;96560.59;;;8.83;100.00
49973;BME280;65693;49.798;10.968;2023-01-15T02:33:17;96564.78;;;8.84;100.00
49973;BME280;65693;49.798;10.968;2023-01-15T02:35:49;96570.09;;;8.84;100.00
49973;BME280;65693;49.798;10.968;2023-01-15T02:38:21;96557.94;;;8.83;100.00
49973;BME280;65693;49.798;10.968;2023-01-15T02:40:53;96561.34;;;8.83;100.00
49973;BME280;65693;49.798;10.968;2023-01-15T02:43:23;96561.34;;;8.83;100.00
49973;BME280;65693;49.798;10.968;2023-01-15T02:45:54;96553.94;;;8.85;100.00
49973;BME280;65693;49.798;10.968;2023-01-15T02:48:24;96557.34;;;8.86;100.00
49973;BME280;65693;49.798;10.968;2023-01-15T02:50:54;96559.72;;;8.87;100.00
49973;BME280;65693;49.798;10.968;2023-01-15T02:53:24;96556.00;;;8.88;100.00
49973;BME280;65693;49.798;10.968;2023-01-15T02:55:56;96559.22;;;8.85;100.00
49973;BME280;65693;49.798;10.968;2023-01-15T02:58:29;96549.41;;;8.86;100.00
49973;BME280;65693;49.798;10.968;2023-01-15T03:01:00;96551.28;;;8.85;100.00
49973;BME280;65693;49.798;10.968;2023-01-15T03:03:40;96555.00;;;8.84;100.00
49973;BME280;65693;49.798;10.968;2023-01-15T03:06:13;96556.06;;;8.83;100.00
49973;BME280;65693;49.798;10.968;2023-01-15T03:08:42;96550.97;;;8.87;100.00
49973;BME280;65693;49.798;10.968;2023-01-15T03:11:10;96548.63;;;8.85;100.00
49973;BME280;65693;49.798;10.968;2023-01-15T03:13:44;96544.09;;;8.86;100.00
49973;BME280;65693;49.798;10.968;2023-01-15T03:16:16;96541.44;;;8.86;100.00
49973;BME280;65693;49.798;10.968;2023-01-15T03:19:03;96541.44;;;8.86;100.00
49973;BME280;65693;49.798;10.968;2023-01-15T03:21:38;96531.63;;;8.86;100.00
49973;BME280;65693;49.798;10.968;2023-01-15T03:24:09;96528.97;;;8.86;100.00
49973;BME280;65693;49.798;10.968;2023-01-15T03:26:37;96524.75;;;8.85;100.00
49973;BME280;65693;49.798;10.968;2023-01-15T03:29:06;96524.47;;;8.87;100.00
49973;BME280;65693;49.798;10.968;2023-01-15T03:31:34;96525.25;;;8.87;100.00
49973;BME280;65693;49.798;10.968;2023-01-15T03:34:01;96524.75;;;8.85;100.00
49973;BME280;65693;49.798;10.968;2023-01-15T03:36:27;96527.91;;;8.87;100.00
49973;BME280;65693;49.798;10.968;2023-01-15T03:38:54;96519.47;;;8.85;100.00
49973;BME280;65693;49.798;10.968;2023-01-15T03:41:24;96510.41;;;8.86;100.00
49973;BME280;65693;49.798;10.968;2023-01-15T03:44:01;96514.16;;;8.85;100.00
49973;BME280;65693;49.798;10.968;2023-01-15T03:46:40;96517.59;;;8.86;100.00
49973;BME280;65693;49.798;10.968;2023-01-15T03:49:15;96507.75;;;8.86;100.00
49973;BME280;65693;49.798;10.968;2023-01-15T03:51:50;96499.03;;;8.86;100.00
49973;BME280;65693;49.798;10.968;2023-01-15T03:54:24;96512.00;;;8.87;100.00
49973;BME280;65693;49.798;10.968;2023-01-15T03:56:57;96497.66;;;8.88;100.00
49973;BME280;65693;49.798;10.968;2023-01-15T03:59:31;96496.91;;;8.88;100.00
49973;BME280;65693;49.798;10.968;2023-01-15T04:02:01;96487.84;;;8.89;100.00
49973;BME280;65693;49.798;10.968;2023-01-15T04:04:29;96495.31;;;8.87;100.00
49973;BME280;65693;49.798;10.968;2023-01-15T04:06:57;96492.38;;;8.88;100.00
49973;BME280;65693;49.798;10.968;2023-01-15T04:09:25;96484.91;;;8.90;100.00
49973;BME280;65693;49.798;10.968;2023-01-15T04:11:51;96476.47;;;8.88;100.00
49973;BME280;65693;49.798;10.968;2023-01-15T04:14:18;96487.06;;;8.88;100.00
49973;BME280;65693;49.798;10.968;2023-01-15T04:16:44;96485.47;;;8.87;100.00
49973;BME280;65693;49.798;10.968;2023-01-15T04:19:12;96503.25;;;8.87;100.00
49973;BME280;65693;49.798;10.968;2023-01-15T04:21:38;96479.59;;;8.90;100.00
49973;BME280;65693;49.798;10.968;2023-01-15T04:24:05;96464.78;;;8.89;100.00
49973;BME280;65693;49.798;10.968;2023-01-15T04:26:32;96477.25;;;8.89;100.00
49973;BME280;65693;49.798;10.968;2023-01-15T04:28:58;96477.25;;;8.89;100.00
49973;BME280;65693;49.798;10.968;2023-01-15T04:31:24;96478.81;;;8.90;100.00
49973;BME280;65693;49.798;10.968;2023-01-15T04:33:52;96474.28;;;8.90;100.00
49973;BME280;65693;49.798;10.968;2023-01-15T04:36:19;96461.34;;;8.89;100.00
49973;BME280;65693;49.798;10.968;2023-01-15T04:38:46;96460.56;;;8.88;100.00
49973;BME280;65693;49.798;10.968;2023-01-15T04:41:12;96456.03;;;8.89;100.00
49973;BME280;65693;49.798;10.968;2023-01-15T04:43:57;96454.97;;;8.90;100.00
49973;BME280;65693;49.798;10.968;2023-01-15T04:46:33;96456.53;;;8.91;100.00
49973;BME280;65693;49.798;10.968;2023-01-15T04:49:00;96452.59;;;8.88;100.00
49973;BME280;65693;49.798;10.968;2023-01-15T04:51:28;96453.38;;;8.89;100.00
49973;BME280;65693;49.798;10.968;2023-01-15T04:53:54;96449.94;;;8.88;100.00
49973;BME280;65693;49.798;10.968;2023-01-15T04:56:20;96447.31;;;8.88;100.00
49973;BME280;65693;49.798;10.968;2023-01-15T04:58:47;96446.22;;;8.89;100.00
49973;BME280;65693;49.798;10.968;2023-01-15T05:01:16;96440.94;;;8.89;100.00
49973;BME280;65693;49.798;10.968;2023-01-15T05:03:43;96445.72;;;8.87;100.00
49973;BME280;65693;49.798;10.968;2023-01-15T05:06:10;96429.81;;;8.87;100.00
49973;BME280;65693;49.798;10.968;2023-01-15T05:08:39;96427.16;;;8.87;100.00
49973;BME280;65693;49.798;10.968;2023-01-15T05:11:06;96416.78;;;8.91;100.00
49973;BME280;65693;49.798;10.968;2023-01-15T05:13:33;96420.50;;;8.90;100.00
49973;BME280;65693;49.798;10.968;2023-01-15T05:16:11;96410.66;;;8.90;100.00
49973;BME280;65693;49.798;10.968;2023-01-15T05:18:38;96405.38;;;8.90;100.00
49973;BME280;65693;49.798;10.968;2023-01-15T05:21:05;96412.84;;;8.88;100.00
49973;BME280;65693;49.798;10.968;2023-01-15T05:23:32;96404.88;;;8.88;100.00
49973;BME280;65693;49.798;10.968;2023-01-15T05:26:02;96419.72;;;8.89;100.00
49973;BME280;65693;49.798;10.968;2023-01-15T05:28:30;96420.22;;;8.91;100.00
49973;BME280;65693;49.798;10.968;2023-01-15T05:30:56;96418.34;;;8.92;100.00
49973;BME280;65693;49.798;10.968;2023-01-15T05:33:23;96426.03;;;8.93;100.00
49973;BME280;65693;49.798;10.968;2023-01-15T05:35:49;96433.47;;;8.91;100.00
49973;BME280;65693;49.798;10.968;2023-01-15T05:38:16;96422.84;;;8.91;100.00
49973;BME280;65693;49.798;10.968;2023-01-15T05:40:42;96412.53;;;8.90;100.00
49973;BME280;65693;49.798;10.968;2023-01-15T05:43:10;96420.50;;;8.90;100.00
49973;BME280;65693;49.798;10.968;2023-01-15T05:45:36;96447.78;;;8.90;100.00
49973;BME280;65693;49.798;10.968;2023-01-15T05:48:03;96447.78;;;8.90;100.00
49973;BME280;65693;49.798;10.968;2023-01-15T05:50:29;96487.84;;;8.89;100.00
49973;BME280;65693;49.798;10.968;2023-01-15T05:52:56;96494.44;;;8.91;100.00
49973;BME280;65693;49.798;10.968;2023-01-15T05:55:22;96512.22;;;8.91;100.00
49973;BME280;65693;49.798;10.968;2023-01-15T05:57:48;96522.03;;;8.90;100.00
49973;BME280;65693;49.798;10.968;2023-01-15T06:00:18;96545.88;;;8.90;100.00
49973;BME280;65693;49.798;10.968;2023-01-15T06:02:47;96550.13;;;8.91;100.00
49973;BME280;65693;49.798;10.968;2023-01-15T06:05:15;96553.28;;;8.93;100.00
49973;BME280;65693;49.798;10.968;2023-01-15T06:07:46;96554.34;;;8.92;100.00
49973;BME280;65693;49.798;10.968;2023-01-15T06:10:14;96561.22;;;8.93;100.00
49973;BME280;65693;49.798;10.968;2023-01-15T06:12:40;96569.97;;;8.94;100.00
49973;BME280;65693;49.798;10.968;2023-01-15T06:15:08;96573.41;;;8.94;100.00
49973;BME280;65693;49.798;10.968;2023-01-15T06:17:36;96581.34;;;8.94;100.00
49973;BME280;65693;49.798;10.968;2023-01-15T06:20:03;96579.78;;;8.93;100.00
49973;BME280;65693;49.798;10.968;2023-01-15T06:22:30;96580.56;;;8.94;100.00
49973;BME280;65693;49.798;10.968;2023-01-15T06:24:56;96571.84;;;8.93;100.00
49973;BME280;65693;49.798;10.968;2023-01-15T06:27:22;96571.56;;;8.95;100.00
49973;BME280;65693;49.798;10.968;2023-01-15T06:29:49;96570.75;;;8.94;100.00
49973;BME280;65693;49.798;10.968;2023-01-15T06:32:15;96558.59;;;8.93;100.00
49973;BME280;65693;49.798;10.968;2023-01-15T06:34:43;96558.59;;;8.93;100.00
49973;BME280;65693;49.798;10.968;2023-01-15T06:37:09;96565.72;;;8.93;100.00
49973;BME280;65693;49.798;10.968;2023-01-15T06:39:36;96569.19;;;8.93;100.00
49973;BME280;65693;49.798;10.968;2023-01-15T06:42:03;96579.78;;;8.93;100.00
49973;BME280;65693;49.798;10.968;2023-01-15T06:44:47;96588.53;;;8.94;100.00
49973;BME280;65693;49.798;10.968;2023-01-15T06:47:31;96597.25;;;8.94;100.00
49973;BME280;65693;49.798;10.968;2023-01-15T06:49:59;96598.34;;;8.93;100.00
49973;BME280;65693;49.798;10.968;2023-01-15T06:52:27;96602.56;;;8.94;100.00
49973;BME280;65693;49.798;10.968;2023-01-15T06:54:53;96613.16;;;8.94;100.00
49973;BME280;65693;49.798;10.968;2023-01-15T06:57:20;96601.78;;;8.94;100.00
49973;BME280;65693;49.798;10.968;2023-01-15T06:59:47;96603.38;;;8.95;100.00
49973;BME280;65693;49.798;10.968;2023-01-15T07:02:14;96613.16;;;8.94;100.00
49973;BME280;65693;49.798;10.968;2023-01-15T07:04:42;96629.06;;;8.94;100.00
49973;BME280;65693;49.798;10.968;2023-01-15T07:07:09;96634.38;;;8.94;100.00
49973;BME280;65693;49.798;10.968;2023-01-15T07:09:36;96629.88;;;8.95;100.00
49973;BME280;65693;49.798;10.968;2023-01-15T07:12:02;96618.47;;;8.94;100.00
49973;BME280;65693;49.798;10.968;2023-01-15T07:14:29;96622.22;;;8.93;100.00
49973;BME280;65693;49.798;10.968;2023-01-15T07:16:57;96635.97;;;8.95;100.00
49973;BME280;65693;49.798;10.968;2023-01-15T07:19:24;96640.47;;;8.95;100.00
49973;BME280;65693;49.798;10.968;2023-01-15T07:21:50;96644.97;;;8.94;100.00
49973;BME280;65693;49.798;10.968;2023-01-15T07:24:18;96659.34;;;8.93;100.00
49973;BME280;65693;49.798;10.968;2023-01-15T07:26:45;96662.75;;;8.94;100.00
49973;BME280;65693;49.798;10.968;2023-01-15T07:29:12;96681.03;;;8.95;100.00
49973;BME280;65693;49.798;10.968;2023-01-15T07:31:38;96672.59;;;8.93;100.00
49973;BME280;65693;49.798;10.968;2023-01-15T07:34:06;96675.25;;;8.93;100.00
49973;BME280;65693;49.798;10.968;2023-01-15T07:36:32;96686.63;;;8.94;100.00
49973;BME280;65693;49.798;10.968;2023-01-15T07:38:59;96685.31;;;8.91;100.00
49973;BME280;65693;49.798;10.968;2023-01-15T07:41:27;96685.31;;;8.91;100.00
49973;BME280;65693;49.798;10.968;2023-01-15T07:44:11;96693.00;;;8.93;100.00
49973;BME280;65693;49.798;10.968;2023-01-15T07:46:55;96686.91;;;8.92;100.00
49973;BME280;65693;49.798;10.968;2023-01-15T07:49:41;96683.97;;;8.94;100.00
49973;BME280;65693;49.798;10.968;2023-01-15T07:52:11;96693.81;;;8.93;100.00
49973;BME280;65693;49.798;10.968;2023-01-15T07:54:37;96704.41;;;8.93;100.00
49973;BME280;65693;49.798;10.968;2023-01-15T07:57:05;96721.38;;;8.92;100.00
49973;BME280;65693;49.798;10.968;2023-01-15T07:59:32;96727.75;;;8.91;100.00
49973;BME280;65693;49.798;10.968;2023-01-15T08:01:59;96743.38;;;8.93;100.00
49973;BME280;65693;49.798;10.968;2023-01-15T08:04:25;96753.19;;;8.92;100.00
49973;BME280;65693;49.798;10.968;2023-01-15T08:06:52;96756.91;;;8.91;100.00
49973;BME280;65693;49.798;10.968;2023-01-15T08:09:18;96757.72;;;8.92;100.00
49973;BME280;65693;49.798;10.968;2023-01-15T08:11:44;96769.09;;;8.92;100.00
49973;BME280;65693;49.798;10.968;2023-01-15T08:14:30;96769.09;;;8.92;100.00
49973;BME280;65693;49.798;10.968;2023-01-15T08:17:14;96782.66;;;8.91;100.00
49973;BME280;65693;49.798;10.968;2023-01-15T08:19:41;96792.19;;;8.92;100.00
49973;BME280;65693;49.798;10.968;2023-01-15T08:22:09;96795.09;;;8.90;100.00
49973;BME280;65693;49.798;10.968;2023-01-15T08:24:36;96800.41;;;8.90;100.00
49973;BME280;65693;49.798;10.968;2023-01-15T08:27:03;96797.75;;;8.90;100.00
49973;BME280;65693;49.798;10.968;2023-01-15T08:29:31;96779.19;;;8.90;100.00
49973;BME280;65693;49.798;10.968;2023-01-15T08:31:57;96777.34;;;8.91;100.00
49973;BME280;65693;49.798;10.968;2023-01-15T08:34:24;96798.56;;;8.91;100.00
49973;BME280;65693;49.798;10.968;2023-01-15T08:36:50;96793.25;;;8.91;100.00
49973;BME280;65693;49.798;10.968;2023-01-15T08:39:21;96799.34;;;8.91;100.00
49973;BME280;65693;49.798;10.968;2023-01-15T08:41:48;96808.34;;;8.90;100.00
49973;BME280;65693;49.798;10.968;2023-01-15T08:44:14;96801.97;;;8.91;100.00
49973;BME280;65693;49.798;10.968;2023-01-15T08:46:43;96807.56;;;8.90;100.00
49973;BME280;65693;49.798;10.968;2023-01-15T08:49:09;96808.34;;;8.90;100.00
49973;BME280;65693;49.798;10.968;2023-01-15T08:51:35;96805.69;;;8.90;100.00
49973;BME280;65693;49.798;10.968;2023-01-15T08:54:02;96803.34;;;8.89;100.00
49973;BME280;65693;49.798;10.968;2023-01-15T08:56:29;96809.44;;;8.89;100.00
49973;BME280;65693;49.798;10.968;2023-01-15T08:58:55;96825.34;;;8.89;100.00
49973;BME280;65693;49.798;10.968;2023-01-15T09:01:22;96838.59;;;8.89;100.00
49973;BME280;65693;49.798;10.968;2023-01-15T09:03:49;96842.31;;;8.88;100.00
49973;BME280;65693;49.798;10.968;2023-01-15T09:06:16;96845.75;;;8.89;100.00
49973;BME280;65693;49.798;10.968;2023-01-15T09:08:42;96851.88;;;8.89;100.00
49973;BME280;65693;49.798;10.968;2023-01-15T09:11:09;96852.16;;;8.88;100.00
49973;BME280;65693;49.798;10.968;2023-01-15T09:13:37;96854.53;;;8.89;100.00
49973;BME280;65693;49.798;10.968;2023-01-15T09:16:05;96857.97;;;8.85;100.00
49973;BME280;65693;49.798;10.968;2023-01-15T09:18:35;96840.56;;;8.78;100.00
49973;BME280;65693;49.798;10.968;2023-01-15T09:21:04;96825.44;;;8.74;100.00
49973;BME280;65693;49.798;10.968;2023-01-15T09:23:31;96805.22;;;8.54;100.00
49973;BME280;65693;49.798;10.968;2023-01-15T09:25:58;96815.50;;;8.60;100.00
49973;BME280;65693;49.798;10.968;2023-01-15T09:28:27;96823.94;;;8.63;100.00
49973;BME280;65693;49.798;10.968;2023-01-15T09:30:54;96821.03;;;8.64;100.00
49973;BME280;65693;49.798;10.968;2023-01-15T09:33:20;96816.53;;;8.65;100.00
49973;BME280;65693;49.798;10.968;2023-01-15T09:35:47;96819.19;;;8.65;100.00
49973;BME280;65693;49.798;10.968;2023-01-15T09:38:17;96824.47;;;8.65;100.00
49973;BME280;65693;49.798;10.968;2023-01-15T09:40:46;96825.53;;;8.64;100.00
49973;BME280;65693;49.798;10.968;2023-01-15T09:43:23;96840.63;;;8.63;100.00
49973;BME280;65693;49.798;10.968;2023-01-15T09:45:56;96833.50;;;8.64;100.00
49973;BME280;65693;49.798;10.968;2023-01-15T09:48:34;96834.28;;;8.64;100.00
49973;BME280;65693;49.798;10.968;2023-01-15T09:51:14;96852.03;;;8.64;100.00
49973;BME280;65693;49.798;10.968;2023-01-15T09:53:56;96865.00;;;8.65;100.00
49973;BME280;65693;49.798;10.968;2023-01-15T09:56:30;96858.13;;;8.64;100.00
49973;BME280;65693;49.798;10.968;2023-01-15T09:59:00;96854.41;;;8.65;100.00
49973;BME280;65693;49.798;10.968;2023-01-15T10:01:31;96862.38;;;8.65;100.00
49973;BME280;65693;49.798;10.968;2023-01-15T10:04:02;96868.44;;;8.66;100.00
49973;BME280;65693;49.798;10.968;2023-01-15T10:06:34;96872.19;;;8.65;100.00
49973;BME280;65693;49.798;10.968;2023-01-15T10:09:10;96869.53;;;8.65;100.00
49973;BME280;65693;49.798;10.968;2023-01-15T10:11:41;96878.28;;;8.65;100.00
49973;BME280;65693;49.798;10.968;2023-01-15T10:14:44;96875.63;;;8.65;100.00
49973;BME280;65693;49.798;10.968;2023-01-15T10:17:24;96881.19;;;8.64;100.00
49973;BME280;65693;49.798;10.968;2023-01-15T10:19:51;96886.50;;;8.64;100.00
49973;BME280;65693;49.798;10.968;2023-01-15T10:22:38;96883.84;;;8.64;100.00
49973;BME280;65693;49.798;10.968;2023-01-15T10:25:14;96888.09;;;8.65;100.00
49973;BME280;65693;49.798;10.968;2023-01-15T10:27:43;96897.09;;;8.64;100.00
49973;BME280;65693;49.798;10.968;2023-01-15T10:30:15;96902.13;;;8.65;100.00
49973;BME280;65693;49.798;10.968;2023-01-15T10:32:44;96905.56;;;8.66;100.00
49973;BME280;65693;49.798;10.968;2023-01-15T10:35:22;96911.13;;;8.64;100.00
49973;BME280;65693;49.798;10.968;2023-01-15T10:37:56;96916.44;;;8.64;100.00
49973;BME280;65693;49.798;10.968;2023-01-15T10:40:33;96930.50;;;8.65;100.00
49973;BME280;65693;49.798;10.968;2023-01-15T10:43:11;96933.16;;;8.65;100.00
49973;BME280;65693;49.798;10.968;2023-01-15T10:45:43;96931.56;;;8.64;100.00
49973;BME280;65693;49.798;10.968;2023-01-15T10:48:18;96919.88;;;8.65;100.00
49973;BME280;65693;49.798;10.968;2023-01-15T10:50:47;96913.50;;;8.66;100.00
49973;BME280;65693;49.798;10.968;2023-01-15T10:53:20;96904.25;;;8.63;100.00
49973;BME280;65693;49.798;10.968;2023-01-15T10:55:56;96918.31;;;8.64;100.00
49973;BME280;65693;49.798;10.968;2023-01-15T10:58:32;96931.56;;;8.64;100.00
49973;BME280;65693;49.798;10.968;2023-01-15T11:01:02;96927.03;;;8.64;100.00
49973;BME280;65693;49.798;10.968;2023-01-15T11:03:35;96929.97;;;8.63;100.00
49973;BME280;65693;49.798;10.968;2023-01-15T11:06:02;96931.56;;;8.64;100.00
49973;BME280;65693;49.798;10.968;2023-01-15T11:08:30;96936.84;;;8.64;100.00
49973;BME280;65693;49.798;10.968;2023-01-15T11:11:08;96945.59;;;8.64;100.00
49973;BME280;65693;49.798;10.968;2023-01-15T11:13:51;96933.41;;;8.63;100.00
49973;BME280;65693;49.798;10.968;2023-01-15T11:16:35;96943.75;;;8.65;100.00
49973;BME280;65693;49.798;10.968;2023-01-15T11:19:25;96941.09;;;8.65;100.00
49973;BME280;65693;49.798;10.968;2023-01-15T11:22:06;96936.84;;;8.64;100.00
49973;BME280;65693;49.798;10.968;2023-01-15T11:24:36;96935.78;;;8.65;100.00
49973;BME280;65693;49.798;10.968;2023-01-15T11:27:05;96938.44;;;8.65;100.00
49973;BME280;65693;49.798;10.968;2023-01-15T11:29:34;96939.50;;;8.64;100.00
49973;BME280;65693;49.798;10.968;2023-01-15T11:32:02;96941.34;;;8.63;100.00
49973;BME280;65693;49.798;10.968;2023-01-15T11:34:29;96957.25;;;8.63;100.00
49973;BME280;65693;49.798;10.968;2023-01-15T11:37:02;96959.66;;;8.65;100.00
49973;BME280;65693;49.798;10.968;2023-01-15T11:39:29;96953.81;;;8.63;100.00
49973;BME280;65693;49.798;10.968;2023-01-15T11:42:00;96962.53;;;8.63;100.00
49973;BME280;65693;49.798;10.968;2023-01-15T11:44:53;96969.44;;;8.64;100.00
49973;BME280;65693;49.798;10.968;2023-01-15T11:47:51;96975.00;;;8.63;100.00
49973;BME280;65693;49.798;10.968;2023-01-15T11:50:39;96982.97;;;8.63;100.00
49973;BME280;65693;49.798;10.968;2023-01-15T11:53:16;96967.84;;;8.63;100.00
49973;BME280;65693;49.798;10.968;2023-01-15T11:55:57;96960.97;;;8.62;100.00
49973;BME280;65693;49.798;10.968;2023-01-15T11:58:27;96972.38;;;8.63;100.00
49973;BME280;65693;49.798;10.968;2023-01-15T12:00:55;96977.66;;;8.63;100.00
49973;BME280;65693;49.798;10.968;2023-01-15T12:03:26;96973.97;;;8.64;100.00
49973;BME280;65693;49.798;10.968;2023-01-15T12:05:58;96973.44;;;8.61;100.00
49973;BME280;65693;49.798;10.968;2023-01-15T12:08:35;96968.13;;;8.61;100.00
49973;BME280;65693;49.798;10.968;2023-01-15T12:11:10;96972.38;;;8.63;100.00
49973;BME280;65693;49.798;10.968;2023-01-15T12:13:49;96980.31;;;8.63;100.00
49973;BME280;65693;49.798;10.968;2023-01-15T12:16:23;96974.50;;;8.60;100.00
49973;BME280;65693;49.798;10.968;2023-01-15T12:18:57;96989.31;;;8.61;100.00
49973;BME280;65693;49.798;10.968;2023-01-15T12:21:38;96991.97;;;8.61;100.00
49973;BME280;65693;49.798;10.968;2023-01-15T12:24:30;96997.28;;;8.61;100.00
49973;BME280;65693;49.798;10.968;2023-01-15T12:27:17;97000.22;;;8.60;100.00
49973;BME280;65693;49.798;10.968;2023-01-15T12:29:50;96997.28;;;8.61;100.00
49973;BME280;65693;49.798;10.968;2023-01-15T12:32:24;97000.22;;;8.60;100.00
49973;BME280;65693;49.798;10.968;2023-01-15T12:34:57;96994.13;;;8.59;100.00
49973;BME280;65693;49.798;10.968;2023-01-15T12:37:32;96989.59;;;8.60;100.00
49973;BME280;65693;49.798;10.968;2023-01-15T12:40:14;97001.00;;;8.60;100.00
49973;BME280;65693;49.798;10.968;2023-01-15T12:42:46;97011.09;;;8.58;100.00
49973;BME280;65693;49.798;10.968;2023-01-15T12:45:35;97008.16;;;8.60;100.00
49973;BME280;65693;49.798;10.968;2023-01-15T12:48:11;97009.22;;;8.59;100.00
49973;BME280;65693;49.798;10.968;2023-01-15T12:50:41;97001.25;;;8.59;100.00
49973;BME280;65693;49.798;10.968;2023-01-15T12:53:13;97002.06;;;8.59;100.00
49973;BME280;65693;49.798;10.968;2023-01-15T12:55:43;96998.63;;;8.59;100.00
49973;BME280;65693;49.798;10.968;2023-01-15T12:58:30;96997.84;;;8.58;100.00
49973;BME280;65693;49.798;10.968;2023-01-15T13:01:03;96993.31;;;8.59;100.00
49973;BME280;65693;49.798;10.968;2023-01-15T13:03:45;96991.47;;;8.59;100.00
49973;BME280;65693;49.798;10.968;2023-01-15T13:06:14;96985.38;;;8.59;100.00
49973;BME280;65693;49.798;10.968;2023-01-15T13:08:50;96985.38;;;8.59;100.00